Aktualne dane pomiarowe

Uwaga, wersja testowa! Automatyczne pobieranie danych za pomocą narzędzi lub skryptów to umożliwiających jest zabronione.

Dane meteo z obszaru Polski uzyskane na podstawie depesz SYNOP pobieranych co godzinę z NWS. Najedź myszką na symbol przedstawiony w tabeli, aby uzyskać informacje co do jego znaczenia. Prosimy pamiętać, że to testowa wersja strony, która jeszcze nie jest ukończona. Stworzono również jest krótki FAQ dotyczący korzystania z tej podstrony Anomalie temperatury w chwili obecnej odniesione są do okresu referencyjnego 1951-2016. Okres ten będzie później zmieniony na 1981-2010. Kliknij ikonę aby pobrać plik CSV. Kliknij ikonę aby wygenerować mapę synoptyczną dla danego terminu.

Wybierz Datę:    

        

Lesko (12690)

Dane terminowe dla wybranej stacji. Kliknij datę, aby otrzymać dane z tego terminu dla wszystkich stacji.

TemperaturaZachmurzenieWiatrCiśnienieOpadyPogoda
 Data t td wb tx tn tg rh  Nt Nl Cl Cm Ch ws wd g1 g2 wx mslp ppp ch 24h 12h t ww ww w1 w2  
2019-05-26 23:00:00 12.6 12.1 12.2--- 975.0wxwxwx2wx--21014.9 965.0 -0.3---wx---
2019-05-26 22:00:00 13.1 12.5 12.6--- 967.0wxwxwxwx3wx--31014.9 965.1 -0.1---wx---
2019-05-26 21:00:00 13.7 12.6 12.9--- 9321.0wxwxwxwx2wx--21014.8 965.1 0.0---------
2019-05-26 20:00:00 14.4 13.1 13.5--- 9223.0wxwxwx2wx--21014.9 965.3 0.0---------
2019-05-26 19:00:00 15.3 13.7 14.2--- 9025.0wxwxwx2wx--21014.6 965.2 0.5---------
2019-05-26 18:00:00 16.1 13.2 14.1 22.6 12.9- 8335.0wxwxwx2wx-821014.4 965.1 0.2- 0.712wx-w1w2--
2019-05-26 17:00:00 17.1 13.2 14.5--- 7835.0wxwxwx1wx--11014.4 965.3 0.2---------
2019-05-26 16:00:00 17.9 13.6 15.0--- 7635.0wxwxwxwx2wx--21013.7 964.7 -0.3---------
2019-05-26 15:00:00 17.3 12.6 14.2--- 7435.0wxwxwx3wx---1014.0 964.9 -0.1---wx-w1--
2019-05-26 14:00:00 15.6 12.2 13.3--- 8022.0wxwxwx2wx--21014.5 965.1 -0.1---wx-w1w2--
2019-05-26 13:00:00 20.9 11.2 15.0--- 5435.0wxwxwx3wx-831013.5 965.0 -0.4---------
2019-05-26 12:00:00 21.4 9.3 14.3--- 4635.0wxwxwxwxwx4wx-941013.4 965.0 -0.4- 0.06------
2019-05-26 11:00:00 20.9 8.5 13.8--- 4535.0wxwxwxwxwx3wx--31013.7 965.2 -0.5---------
2019-05-26 10:00:00 21.1 8.7 13.9--- 4535.0wxwxwxwxwx4wx9941013.9 965.4 -0.4---------
2019-05-26 09:00:00 20.8 9.7 14.3--- 4935.0wxwxwxwxwx4wx--41013.9 965.4 -0.5---------
2019-05-26 08:00:00 18.3 12.1 14.4--- 6735.0wxwxwxwxwx1wx--11014.7 965.7 -0.1---------
2019-05-26 07:00:00 16.0 12.0 13.4--- 7735.0wx-wxwx0---01015.2 965.8 0.0---------
2019-05-26 06:00:00 12.9 10.6 11.3 16.5 7.7 7 8635.0wx-wxwx1wx--11015.8 965.9 0.3 0.9 0.012----- 4.5
2019-05-26 05:00:00 10.5 9.6 9.8--- 9430.0wx-wxwx2wx---1016.1 965.8 0.2---------
2019-05-26 04:00:00 8.4 7.8 7.9--- 9613.0wx-wxwx2wx--21016.5 965.8 0.3---wx---
2019-05-26 03:00:00 7.9 7.3 7.4--- 9612.0wx-wx2wx--21016.4 965.6 0.3---wx---
2019-05-26 02:00:00 8.1 7.5 7.6--- 9610.0wx-wx2wx--21016.4 965.6 0.2---------
2019-05-26 01:00:00 8.4 7.6 7.8--- 9511.0wx-2wx--21016.2 965.5 0.2---------
2019-05-26 00:00:00 9.0 8.2 8.4--- 9512.0wx-wx3wx--31015.9 965.3 0.3- 0.06------
2019-05-25 23:00:00 9.1 8.0 8.3--- 9312.0wx-2wx--21016.0 965.4 0.7---------
2019-05-25 22:00:00 10.5 9.1 9.5--- 9125.0wx-2wx--21015.6 965.3 1.0---------
2019-05-25 21:00:00 11.0 9.1 9.7--- 8824.0wx-wx2wx--21015.2 965.0 1.2---------
2019-05-25 20:00:00 12.5 9.1 10.3--- 8035.0wx-wx2wx--21014.6 964.7 0.9---------
2019-05-25 19:00:00 14.0 8.8 10.8--- 7135.0wx-wx2wx---1013.9 964.3 0.7---------
2019-05-25 18:00:00 16.5 9.2 12.1 19.7 11.5- 6235.0wx-wx1wx-911013.0 963.8 0.2- 0.912------
2019-05-25 17:00:00 18.6 8.3 12.6--- 5135.0wx-wx2wx--21012.6 963.8 0.2---------
2019-05-25 16:00:00 19.5 8.2 13.0--- 4835.0wxwxwxwx3wx-931012.2 963.6 0.0---------
2019-05-25 15:00:00 19.3 7.7 12.7--- 4735.0wxwxwx4wx--41012.3 963.6 -0.3---------
2019-05-25 14:00:00 18.3 9.4 13.0--- 5635.0wxwxwx3wx---1012.4 963.6 -0.6---------
2019-05-25 13:00:00 18.2 12.0 14.3--- 6730.0wxwxwx2wx--21012.5 963.6 -0.8---------
2019-05-25 12:00:00 17.3 12.4 14.1--- 7335.0wxwxwx1wx--11012.9 963.9 -0.3- 0.96wx-w1--
2019-05-25 11:00:00 15.5 12.1 13.2--- 8024.0wxwxwx2wx--21013.6 964.2 0.2---------
2019-05-25 10:00:00 14.6 13.6 13.9--- 9415.0wxwxwx2wx--21013.9 964.4 0.8---------
2019-05-25 09:00:00 12.9 12.6 12.6--- 987.0wxwxwx2wx---1014.0 964.2 0.9---wx-w1--
2019-05-25 08:00:00 12.3 12.0 12.0--- 986.0wxwxwx2wx--21013.9 964.0 1.0---wx-w1--
2019-05-25 07:00:00 11.7 11.4 11.4--- 982.4wxwxwxwx2wx--21013.6 963.6 0.8---wx-w1w2--
2019-05-25 06:00:00 11.6 11.3 11.3 12.3 11.4 12 981.5wxwxwxwx3wx--31013.3 963.3 0.8 1.5 1.012wx-w1w2--
2019-05-25 05:00:00 11.5 11.2 11.2--- 980.8wxwxwxwx2wx---1013.0 963.0 0.6---wx-w1w2--
2019-05-25 04:00:00 11.5 11.2 11.2--- 980.8wxwxwxwx2wx--21012.8 962.8 0.5---wx-w1w2--
2019-05-25 03:00:00 11.6 11.3 11.3--- 980.8wxwxwxwx1wx--11012.5 962.5 0.0---wx-w1w2--
2019-05-25 02:00:00 11.6 11.3 11.3--- 980.8wxwxwx1wx--11012.4 962.4 -0.5---wx-w1w2--
2019-05-25 01:00:00 11.5 11.2 11.2--- 980.6wxwxwx2wx--21012.3 962.3 -0.6---wx-w1w2--
2019-05-25 00:00:00 11.6 11.3 11.3--- 980.4wxwxwx1wx--11012.5 962.5 -0.9- 0.06wx---
1.6 ms

 

Print Friendly, PDF & Email